Time;durP1;ratioP1;P1;durP2;ratioP2;P2;SDS_P1;SDS_P2;PMS_P1;PMS_P2;Temp;Humidity;BMP_temperature;BMP_pressure;BME280_temperature;BME280_humidity;BME280_pressure;Samples;Min_cycle;Max_cycle;Signal;HPM_P1;HPM_P2
2022/08/05 00:01:43;;;;;;;5.10;2.90;;;;;;;;;;5052191;28;20401;-49
2022/08/05 00:04:09;;;;;;;7.43;4.10;;;;;;;;;;5052838;28;20434;-50
2022/08/05 00:06:35;;;;;;;7.03;3.10;;;;;;;;;;5064178;28;21002;-49
2022/08/05 00:09:02;;;;;;;5.07;3.30;;;;;;;;;;5072711;28;20439;-50
2022/08/05 00:11:28;;;;;;;3.37;3.07;;;;;;;;;;5071973;28;20398;-50
2022/08/05 00:13:54;;;;;;;4.07;3.37;;;;;;;;;;5069467;28;20848;-50
2022/08/05 00:16:20;;;;;;;11.53;4.37;;;;;;;;;;5052523;28;20423;-50
2022/08/05 00:18:46;;;;;;;7.77;3.30;;;;;;;;;;5052500;28;20981;-50
2022/08/05 00:21:13;;;;;;;3.63;3.30;;;;;;;;;;5052254;28;20413;-50
2022/08/05 00:23:39;;;;;;;7.97;4.07;;;;;;;;;;5052491;28;20872;-50
2022/08/05 00:26:05;;;;;;;3.77;3.40;;;;;;;;;;5052308;28;21039;-50
2022/08/05 00:28:31;;;;;;;4.37;3.27;;;;;;;;;;5052449;28;20438;-51
2022/08/05 00:30:57;;;;;;;3.50;3.20;;;;;;;;;;5051500;28;20437;-51
2022/08/05 00:33:23;;;;;;;5.70;3.83;;;;;;;;;;5052349;28;20441;-50
2022/08/05 00:35:49;;;;;;;4.37;3.30;;;;;;;;;;5052277;28;20421;-50
2022/08/05 00:38:15;;;;;;;3.67;3.37;;;;;;;;;;5052287;28;20409;-50
2022/08/05 00:40:48;;;;;;;5.27;3.87;;;;;;;;;;5051547;28;20423;-50
2022/08/05 00:43:14;;;;;;;3.80;3.20;;;;;;;;;;5052152;28;20484;-50
2022/08/05 00:45:42;;;;;;;4.00;3.60;;;;;;;;;;5051765;28;20603;-50
2022/08/05 00:48:08;;;;;;;3.80;3.47;;;;;;;;;;5052068;28;20401;-50
2022/08/05 00:50:34;;;;;;;4.10;3.80;;;;;;;;;;5051378;28;20407;-50
2022/08/05 00:53:00;;;;;;;5.90;3.90;;;;;;;;;;5051679;28;20423;-50
2022/08/05 00:55:26;;;;;;;4.73;3.60;;;;;;;;;;5051910;28;20503;-50
2022/08/05 00:57:52;;;;;;;5.53;4.10;;;;;;;;;;5051845;28;20430;-50
2022/08/05 01:00:18;;;;;;;3.90;3.60;;;;;;;;;;5051050;28;20406;-50
2022/08/05 01:02:43;;;;;;;4.50;3.87;;;;;;;;;;5050881;28;20464;-50
2022/08/05 01:05:11;;;;;;;4.93;3.60;;;;;;;;;;5051291;28;20449;-50
2022/08/05 01:07:37;;;;;;;6.80;3.53;;;;;;;;;;5050492;28;20544;-50
2022/08/05 01:10:05;;;;;;;3.70;3.40;;;;;;;;;;5050962;28;20528;-50
2022/08/05 01:12:31;;;;;;;3.43;3.23;;;;;;;;;;5051696;28;20904;-50
2022/08/05 01:15:00;;;;;;;4.47;4.03;;;;;;;;;;5051584;28;20948;-50
2022/08/05 01:17:28;;;;;;;6.57;5.90;;;;;;;;;;5059684;28;20449;-50
2022/08/05 01:20:00;;;;;;;3.77;3.47;;;;;;;;;;5071410;28;20940;-50
2022/08/05 01:22:29;;;;;;;6.40;3.30;;;;;;;;;;5076577;28;20412;-50
2022/08/05 01:24:55;;;;;;;3.33;2.83;;;;;;;;;;5078246;28;20447;-50
2022/08/05 01:27:24;;;;;;;3.93;2.93;;;;;;;;;;5078141;28;20474;-51
2022/08/05 01:29:53;;;;;;;3.60;3.10;;;;;;;;;;5077634;28;20404;-50
2022/08/05 01:32:22;;;;;;;3.73;3.43;;;;;;;;;;5078492;28;20397;-50
2022/08/05 01:34:54;;;;;;;4.10;3.40;;;;;;;;;;5078188;28;20415;-50
2022/08/05 01:37:28;;;;;;;4.83;3.50;;;;;;;;;;5078256;28;20412;-50
2022/08/05 01:39:55;;;;;;;3.10;2.90;;;;;;;;;;5077384;28;20907;-50
2022/08/05 01:42:22;;;;;;;4.07;3.33;;;;;;;;;;5078161;28;20934;-50
2022/08/05 01:44:49;;;;;;;3.33;3.10;;;;;;;;;;5078235;28;20405;-50
2022/08/05 01:47:17;;;;;;;5.30;3.20;;;;;;;;;;5057702;28;20473;-50
2022/08/05 01:49:44;;;;;;;4.00;3.10;;;;;;;;;;5057410;28;20462;-51
2022/08/05 01:52:11;;;;;;;9.77;3.70;;;;;;;;;;5057967;28;20432;-50
2022/08/05 01:54:49;;;;;;;8.27;3.63;;;;;;;;;;5058293;28;20760;-50
2022/08/05 01:57:18;;;;;;;9.47;4.13;;;;;;;;;;5058412;28;20441;-50
2022/08/05 01:59:46;;;;;;;3.83;3.50;;;;;;;;;;5057296;28;20403;-50
2022/08/05 02:02:12;;;;;;;3.57;3.27;;;;;;;;;;5058002;28;20487;-51
2022/08/05 02:04:39;;;;;;;3.57;3.27;;;;;;;;;;5057852;28;20398;-50
2022/08/05 02:07:05;;;;;;;5.53;3.77;;;;;;;;;;5058079;28;20430;-50
2022/08/05 02:09:31;;;;;;;5.30;3.10;;;;;;;;;;5057836;28;20825;-50
2022/08/05 02:12:08;;;;;;;5.40;3.53;;;;;;;;;;5057261;28;20442;-50
2022/08/05 02:14:54;;;;;;;3.70;3.40;;;;;;;;;;5057939;28;20428;-50
2022/08/05 02:17:28;;;;;;;3.80;3.50;;;;;;;;;;5053514;28;20853;-50
2022/08/05 02:19:58;;;;;;;4.07;3.33;;;;;;;;;;5057264;28;20489;-50
2022/08/05 02:22:27;;;;;;;3.80;3.50;;;;;;;;;;5057979;28;20400;-50
2022/08/05 02:25:08;;;;;;;6.33;2.80;;;;;;;;;;5058128;28;20397;-51
2022/08/05 02:27:37;;;;;;;8.67;3.17;;;;;;;;;;5057680;28;20418;-49
2022/08/05 02:30:04;;;;;;;3.40;3.20;;;;;;;;;;5057053;28;20427;-50
2022/08/05 02:32:31;;;;;;;5.90;3.50;;;;;;;;;;5056667;28;20423;-50
2022/08/05 02:34:59;;;;;;;4.23;3.47;;;;;;;;;;5053965;28;20405;-50
2022/08/05 02:37:26;;;;;;;5.93;3.40;;;;;;;;;;5054423;28;20437;-50
2022/08/05 02:39:52;;;;;;;4.53;4.00;;;;;;;;;;5053957;28;20411;-49
2022/08/05 02:42:19;;;;;;;3.77;3.47;;;;;;;;;;5054327;28;20989;-49
2022/08/05 02:44:45;;;;;;;4.90;4.00;;;;;;;;;;5054371;28;20406;-51
2022/08/05 02:47:12;;;;;;;4.17;3.63;;;;;;;;;;5054718;28;20449;-50
2022/08/05 02:49:41;;;;;;;4.20;3.90;;;;;;;;;;5054196;28;20411;-49
2022/08/05 02:52:25;;;;;;;3.80;3.10;;;;;;;;;;5053926;28;20394;-50
2022/08/05 02:54:51;;;;;;;3.97;3.67;;;;;;;;;;5054157;28;20452;-49
2022/08/05 02:57:18;;;;;;;4.50;3.93;;;;;;;;;;5053974;28;20431;-49
2022/08/05 02:59:48;;;;;;;5.77;3.40;;;;;;;;;;5053325;28;20398;-50
2022/08/05 03:02:16;;;;;;;5.33;4.37;;;;;;;;;;5054162;28;20769;-50
2022/08/05 03:04:43;;;;;;;5.37;3.50;;;;;;;;;;5054025;28;20398;-49
2022/08/05 03:07:09;;;;;;;4.50;3.87;;;;;;;;;;5053733;28;20421;-50
2022/08/05 03:09:35;;;;;;;7.10;4.00;;;;;;;;;;5053711;28;20484;-51
2022/08/05 03:12:01;;;;;;;4.67;4.27;;;;;;;;;;5053362;28;20396;-49
2022/08/05 03:14:27;;;;;;;4.27;3.73;;;;;;;;;;5054041;28;20390;-50
2022/08/05 03:16:53;;;;;;;5.83;3.67;;;;;;;;;;5053563;28;20418;-50
2022/08/05 03:19:19;;;;;;;4.50;4.10;;;;;;;;;;5053210;28;20430;-51
2022/08/05 03:21:45;;;;;;;5.43;4.00;;;;;;;;;;5052874;28;20461;-49
2022/08/05 03:24:11;;;;;;;11.73;5.23;;;;;;;;;;5053893;28;20410;-50
2022/08/05 03:26:37;;;;;;;7.50;4.80;;;;;;;;;;5053540;28;20469;-50
2022/08/05 03:29:04;;;;;;;4.57;3.67;;;;;;;;;;5053519;28;20949;-50
2022/08/05 03:31:30;;;;;;;8.33;4.60;;;;;;;;;;5052921;28;20406;-50
2022/08/05 03:33:56;;;;;;;4.90;3.90;;;;;;;;;;5053538;28;20409;-50
2022/08/05 03:36:22;;;;;;;6.17;4.20;;;;;;;;;;5053216;28;20421;-51
2022/08/05 03:38:48;;;;;;;4.80;3.83;;;;;;;;;;5053435;28;20759;-49
2022/08/05 03:41:15;;;;;;;14.93;4.87;;;;;;;;;;5052697;28;20465;-49
2022/08/05 03:43:41;;;;;;;7.37;4.70;;;;;;;;;;5053284;28;20463;-51
2022/08/05 03:46:07;;;;;;;10.20;4.97;;;;;;;;;;5053160;28;20788;-50
2022/08/05 03:48:33;;;;;;;6.97;5.23;;;;;;;;;;5053174;28;20424;-52
2022/08/05 03:51:10;;;;;;;5.10;4.13;;;;;;;;;;5051878;28;20429;-49
2022/08/05 03:53:36;;;;;;;11.87;4.97;;;;;;;;;;5053155;28;20817;-50
2022/08/05 03:56:04;;;;;;;6.10;4.83;;;;;;;;;;5053011;28;20444;-49
2022/08/05 03:58:32;;;;;;;5.63;5.17;;;;;;;;;;5052869;28;20428;-50
2022/08/05 04:00:59;;;;;;;5.43;5.03;;;;;;;;;;5052681;28;20474;-49
2022/08/05 04:03:26;;;;;;;6.53;5.87;;;;;;;;;;5052848;28;20407;-49
2022/08/05 04:05:52;;;;;;;8.07;5.73;;;;;;;;;;5052583;28;20461;-50
2022/08/05 04:08:18;;;;;;;8.57;5.90;;;;;;;;;;5053024;28;20409;-50
2022/08/05 04:10:45;;;;;;;5.20;4.70;;;;;;;;;;5052087;28;20393;-49
2022/08/05 04:13:11;;;;;;;10.80;5.57;;;;;;;;;;5052732;28;20407;-49
2022/08/05 04:15:37;;;;;;;6.90;6.00;;;;;;;;;;5052652;28;20414;-49
2022/08/05 04:18:03;;;;;;;12.17;6.47;;;;;;;;;;5052428;28;20408;-49
2022/08/05 04:20:30;;;;;;;6.00;5.37;;;;;;;;;;5051757;28;20775;-49
2022/08/05 04:22:56;;;;;;;9.73;5.17;;;;;;;;;;5052375;28;20412;-49
2022/08/05 04:25:22;;;;;;;6.70;4.90;;;;;;;;;;5052463;28;20468;-49
2022/08/05 04:27:48;;;;;;;6.50;5.80;;;;;;;;;;5052486;28;20445;-49
2022/08/05 04:30:14;;;;;;;5.80;5.20;;;;;;;;;;5051716;28;20436;-50
2022/08/05 04:32:40;;;;;;;9.70;6.40;;;;;;;;;;5052282;28;20772;-50
2022/08/05 04:35:06;;;;;;;10.83;5.80;;;;;;;;;;5052309;28;20409;-50
2022/08/05 04:37:32;;;;;;;6.80;5.67;;;;;;;;;;5052259;28;20465;-49
2022/08/05 04:39:58;;;;;;;7.17;6.17;;;;;;;;;;5051698;28;20412;-50
2022/08/05 04:42:24;;;;;;;7.53;5.20;;;;;;;;;;5052233;28;20409;-49
2022/08/05 04:44:50;;;;;;;6.07;5.50;;;;;;;;;;5052121;28;20405;-49
2022/08/05 04:47:16;;;;;;;6.90;5.57;;;;;;;;;;5051979;28;20460;-50
2022/08/05 04:49:42;;;;;;;7.43;5.67;;;;;;;;;;5052071;28;20434;-51
2022/08/05 04:52:08;;;;;;;6.70;5.40;;;;;;;;;;5052212;28;20412;-50
2022/08/05 04:54:34;;;;;;;6.17;5.27;;;;;;;;;;5052019;28;20412;-49
2022/08/05 04:57:00;;;;;;;9.93;5.90;;;;;;;;;;5051095;28;20489;-49
2022/08/05 04:59:26;;;;;;;5.73;5.20;;;;;;;;;;5051888;28;20412;-49
2022/08/05 05:01:52;;;;;;;9.80;6.40;;;;;;;;;;5051210;28;20916;-50
2022/08/05 05:04:18;;;;;;;7.30;5.70;;;;;;;;;;5051847;28;20405;-49
2022/08/05 05:06:44;;;;;;;9.23;6.43;;;;;;;;;;5051731;28;20461;-49
2022/08/05 05:09:11;;;;;;;7.63;6.40;;;;;;;;;;5051828;28;20884;-49
2022/08/05 05:11:37;;;;;;;7.93;7.13;;;;;;;;;;5051165;28;20480;-49
2022/08/05 05:14:03;;;;;;;7.43;6.37;;;;;;;;;;5051811;28;20492;-49
2022/08/05 05:16:29;;;;;;;7.80;7.00;;;;;;;;;;5051534;28;20827;-49
2022/08/05 05:18:55;;;;;;;8.60;7.70;;;;;;;;;;5051235;28;20429;-49
2022/08/05 05:21:21;;;;;;;8.47;6.73;;;;;;;;;;5055865;28;20860;-49
2022/08/05 05:23:47;;;;;;;12.40;7.90;;;;;;;;;;5071889;28;20496;-49
2022/08/05 05:26:13;;;;;;;12.60;8.03;;;;;;;;;;5071625;28;20887;-49
2022/08/05 05:28:39;;;;;;;12.87;8.87;;;;;;;;;;5071589;28;20444;-50
2022/08/05 05:31:05;;;;;;;11.20;10.03;;;;;;;;;;5070846;28;20431;-50
2022/08/05 05:33:31;;;;;;;15.70;11.33;;;;;;;;;;5071538;28;20904;-50
2022/08/05 05:35:57;;;;;;;14.20;11.50;;;;;;;;;;5071572;28;20420;-49
2022/08/05 05:38:23;;;;;;;12.30;11.10;;;;;;;;;;5071593;28;20419;-49
2022/08/05 05:40:49;;;;;;;16.07;12.07;;;;;;;;;;5070890;28;20426;-49
2022/08/05 05:43:15;;;;;;;17.90;11.20;;;;;;;;;;5071535;28;20409;-49
2022/08/05 05:45:41;;;;;;;18.27;14.00;;;;;;;;;;5071257;28;20487;-49
2022/08/05 05:48:07;;;;;;;18.47;13.67;;;;;;;;;;5071484;28;20812;-49
2022/08/05 05:50:34;;;;;;;23.03;15.67;;;;;;;;;;5062521;28;20457;-50
2022/08/05 05:53:00;;;;;;;20.80;14.90;;;;;;;;;;5052683;28;20928;-49
2022/08/05 05:55:26;;;;;;;20.33;14.50;;;;;;;;;;5071332;28;20401;-49
2022/08/05 05:57:52;;;;;;;14.17;12.47;;;;;;;;;;5071276;28;20463;-49
2022/08/05 06:00:19;;;;;;;17.67;13.53;;;;;;;;;;5070559;28;20412;-49
2022/08/05 06:02:46;;;;;;;18.30;13.07;;;;;;;;;;5071359;28;20454;-50
2022/08/05 06:05:13;;;;;;;19.10;14.27;;;;;;;;;;5071281;28;20480;-49
2022/08/05 06:07:39;;;;;;;16.13;13.00;;;;;;;;;;5072429;28;20430;-49
2022/08/05 06:10:06;;;;;;;17.33;13.87;;;;;;;;;;5074778;28;20397;-49
2022/08/05 06:12:33;;;;;;;19.30;14.00;;;;;;;;;;5074959;28;20407;-51
2022/08/05 06:15:00;;;;;;;23.43;15.57;;;;;;;;;;5074989;28;20415;-49
2022/08/05 06:17:26;;;;;;;17.27;14.50;;;;;;;;;;5074856;28;20421;-49
2022/08/05 06:19:52;;;;;;;17.20;13.77;;;;;;;;;;5063438;28;20525;-49
2022/08/05 06:22:25;;;;;;;18.73;13.87;;;;;;;;;;5054905;28;20477;-49
2022/08/05 06:24:51;;;;;;;19.90;15.63;;;;;;;;;;5054718;28;20397;-50
2022/08/05 06:27:17;;;;;;;17.33;15.00;;;;;;;;;;5054640;28;20502;-49
2022/08/05 06:29:43;;;;;;;18.50;14.63;;;;;;;;;;5054099;28;20488;-50
2022/08/05 06:32:09;;;;;;;17.23;14.03;;;;;;;;;;5054845;28;20394;-49
2022/08/05 06:34:35;;;;;;;18.40;14.07;;;;;;;;;;5054699;28;20402;-49
2022/08/05 06:37:01;;;;;;;21.50;14.20;;;;;;;;;;5054533;28;20424;-50
2022/08/05 06:39:27;;;;;;;18.40;14.30;;;;;;;;;;5054403;28;20500;-49
2022/08/05 06:41:53;;;;;;;17.03;13.37;;;;;;;;;;5053844;28;20500;-49
2022/08/05 06:44:19;;;;;;;14.87;13.07;;;;;;;;;;5054463;28;20818;-49
2022/08/05 06:46:45;;;;;;;15.87;12.83;;;;;;;;;;5054205;28;20486;-49
2022/08/05 06:49:11;;;;;;;21.23;12.93;;;;;;;;;;5053906;28;20935;-49
2022/08/05 06:51:37;;;;;;;14.10;11.63;;;;;;;;;;5054063;28;20806;-49
2022/08/05 06:54:04;;;;;;;11.40;10.17;;;;;;;;;;5070376;28;20467;-49
2022/08/05 06:56:30;;;;;;;15.13;12.77;;;;;;;;;;5073940;28;20498;-49
2022/08/05 06:58:56;;;;;;;15.30;12.57;;;;;;;;;;5074185;28;20462;-49
2022/08/05 07:01:22;;;;;;;16.17;12.70;;;;;;;;;;5073450;28;20444;-49
2022/08/05 07:03:48;;;;;;;15.90;12.53;;;;;;;;;;5074195;28;20405;-49
2022/08/05 07:06:14;;;;;;;13.53;12.10;;;;;;;;;;5073906;28;20475;-49
2022/08/05 07:08:41;;;;;;;15.40;12.10;;;;;;;;;;5074005;28;20397;-49
2022/08/05 07:11:07;;;;;;;17.97;13.70;;;;;;;;;;5073188;28;20401;-49
2022/08/05 07:19:04;;;;;;;20.67;15.20;;;;;;;;;;5071825;28;20977;-49
2022/08/05 07:21:30;;;;;;;15.83;12.73;;;;;;;;;;5073027;28;20496;-49
2022/08/05 07:23:56;;;;;;;17.20;14.73;;;;;;;;;;5073725;28;20906;-49
2022/08/05 07:26:22;;;;;;;22.80;15.97;;;;;;;;;;5073565;28;20860;-49
2022/08/05 07:28:49;;;;;;;18.53;14.60;;;;;;;;;;5073547;28;20412;-49
2022/08/05 07:31:15;;;;;;;16.73;14.10;;;;;;;;;;5072891;28;20379;-51
2022/08/05 07:33:41;;;;;;;18.60;14.97;;;;;;;;;;5073589;28;20690;-49
2022/08/05 07:36:08;;;;;;;16.20;13.97;;;;;;;;;;5073330;28;20514;-49
2022/08/05 07:38:35;;;;;;;20.20;16.33;;;;;;;;;;5073495;28;20453;-50
2022/08/05 07:41:04;;;;;;;17.67;15.40;;;;;;;;;;5072691;28;20818;-49
2022/08/05 07:43:30;;;;;;;17.83;16.07;;;;;;;;;;5072020;28;20852;-50
2022/08/05 07:45:56;;;;;;;25.33;15.93;;;;;;;;;;5073099;28;20523;-49
2022/08/05 07:48:22;;;;;;;20.73;16.00;;;;;;;;;;5073752;28;20403;-49
2022/08/05 07:50:48;;;;;;;18.67;15.87;;;;;;;;;;5055389;28;20440;-49
2022/08/05 07:53:14;;;;;;;22.97;16.63;;;;;;;;;;5073185;28;20403;-49
2022/08/05 07:55:40;;;;;;;16.33;14.70;;;;;;;;;;5073026;28;20975;-49
2022/08/05 07:58:06;;;;;;;16.87;14.13;;;;;;;;;;5073508;28;20799;-50
2022/08/05 08:00:32;;;;;;;16.33;13.93;;;;;;;;;;5072367;28;20407;-51
2022/08/05 08:02:58;;;;;;;15.23;13.67;;;;;;;;;;5072937;28;20507;-50
2022/08/05 08:05:25;;;;;;;22.80;14.13;;;;;;;;;;5072684;28;20457;-50
2022/08/05 08:07:51;;;;;;;17.63;13.50;;;;;;;;;;5072900;28;20403;-50
2022/08/05 08:10:17;;;;;;;14.83;13.33;;;;;;;;;;5072074;28;20797;-50
2022/08/05 08:12:43;;;;;;;17.73;13.03;;;;;;;;;;5072780;28;20488;-50
2022/08/05 08:15:10;;;;;;;16.13;13.70;;;;;;;;;;5072721;28;20926;-50
2022/08/05 08:17:36;;;;;;;15.60;13.97;;;;;;;;;;5072517;28;20416;-50
2022/08/05 08:20:05;;;;;;;14.57;13.17;;;;;;;;;;5070292;28;20497;-50
2022/08/05 08:22:31;;;;;;;12.60;10.90;;;;;;;;;;5072548;28;20404;-51
2022/08/05 08:24:57;;;;;;;15.13;12.80;;;;;;;;;;5072735;28;20406;-51
2022/08/05 08:27:23;;;;;;;16.57;10.80;;;;;;;;;;5072447;28;20902;-51
2022/08/05 08:29:49;;;;;;;14.03;11.10;;;;;;;;;;5071574;28;20392;-50
2022/08/05 08:32:15;;;;;;;10.47;9.47;;;;;;;;;;5070440;28;20408;-50
2022/08/05 08:34:41;;;;;;;15.70;9.30;;;;;;;;;;5072471;28;20375;-50
2022/08/05 08:37:07;;;;;;;10.20;9.20;;;;;;;;;;5072262;28;20561;-50
2022/08/05 08:39:34;;;;;;;9.63;8.70;;;;;;;;;;5072091;28;20395;-50
2022/08/05 08:42:00;;;;;;;13.37;8.77;;;;;;;;;;5071629;28;20404;-50
2022/08/05 08:44:29;;;;;;;8.80;7.90;;;;;;;;;;5072236;28;20399;-50
2022/08/05 08:46:55;;;;;;;11.53;7.90;;;;;;;;;;5071912;28;20463;-50
2022/08/05 08:49:23;;;;;;;11.83;8.50;;;;;;;;;;5064283;28;20429;-50
2022/08/05 08:51:53;;;;;;;9.77;8.70;;;;;;;;;;5053099;28;20404;-50
2022/08/05 08:54:18;;;;;;;13.93;8.73;;;;;;;;;;5072093;28;20432;-50
2022/08/05 08:56:44;;;;;;;13.17;8.50;;;;;;;;;;5071849;28;20483;-50
2022/08/05 08:59:11;;;;;;;18.20;8.27;;;;;;;;;;5071845;28;20407;-50
2022/08/05 09:01:38;;;;;;;10.53;7.70;;;;;;;;;;5069732;28;20416;-50
2022/08/05 09:04:04;;;;;;;8.90;8.00;;;;;;;;;;5080335;28;20439;-50
2022/08/05 09:06:30;;;;;;;10.53;7.63;;;;;;;;;;5091910;28;20967;-50
2022/08/05 09:09:00;;;;;;;11.00;7.60;;;;;;;;;;5091898;28;20399;-50
2022/08/05 09:11:26;;;;;;;11.77;7.30;;;;;;;;;;5091373;28;20396;-50
2022/08/05 09:13:54;;;;;;;17.30;7.00;;;;;;;;;;5091002;28;20406;-50
2022/08/05 09:16:20;;;;;;;13.37;7.00;;;;;;;;;;5087626;28;20922;-50
2022/08/05 09:18:46;;;;;;;13.27;5.13;;;;;;;;;;5051592;28;20405;-51
2022/08/05 09:21:12;;;;;;;5.10;3.90;;;;;;;;;;5051050;28;20405;-50
2022/08/05 09:23:38;;;;;;;5.20;4.40;;;;;;;;;;5051450;28;20409;-50
2022/08/05 09:26:18;;;;;;;9.10;4.47;;;;;;;;;;5051458;28;20826;-50
2022/08/05 09:28:46;;;;;;;6.17;3.87;;;;;;;;;;5051459;28;20445;-50
2022/08/05 09:31:13;;;;;;;7.47;4.67;;;;;;;;;;5050916;28;20389;-50
2022/08/05 09:33:50;;;;;;;5.87;3.90;;;;;;;;;;5051609;28;20398;-50
2022/08/05 09:36:16;;;;;;;5.30;4.80;;;;;;;;;;5051521;28;20427;-50
2022/08/05 09:38:55;;;;;;;8.03;4.20;;;;;;;;;;5051381;28;20405;-50
2022/08/05 09:41:21;;;;;;;8.23;4.63;;;;;;;;;;5050743;28;20407;-51
2022/08/05 09:43:47;;;;;;;4.83;4.43;;;;;;;;;;5054329;28;20951;-50
2022/08/05 09:46:26;;;;;;;5.20;4.63;;;;;;;;;;5056037;28;20461;-50
2022/08/05 09:48:53;;;;;;;5.40;4.40;;;;;;;;;;5055478;28;20427;-50
2022/08/05 09:51:29;;;;;;;7.97;4.80;;;;;;;;;;5054774;28;20763;-50
2022/08/05 09:53:56;;;;;;;5.47;5.07;;;;;;;;;;5055356;28;20387;-50
2022/08/05 09:56:32;;;;;;;9.60;5.30;;;;;;;;;;5057684;28;20441;-50
2022/08/05 09:58:58;;;;;;;7.00;4.90;;;;;;;;;;5063198;28;20434;-50
2022/08/05 10:01:24;;;;;;;9.47;4.70;;;;;;;;;;5063402;28;20783;-50
2022/08/05 10:03:58;;;;;;;8.57;5.00;;;;;;;;;;5071464;28;20912;-52
2022/08/05 10:06:26;;;;;;;6.27;4.53;;;;;;;;;;5074748;28;20463;-50
2022/08/05 10:08:52;;;;;;;5.83;4.33;;;;;;;;;;5074899;28;20409;-50
2022/08/05 10:11:18;;;;;;;8.60;4.70;;;;;;;;;;5074287;28;20755;-50
2022/08/05 10:13:44;;;;;;;5.67;4.27;;;;;;;;;;5073255;28;20396;-50
2022/08/05 10:16:30;;;;;;;5.47;4.33;;;;;;;;;;5073735;28;20466;-50
2022/08/05 10:18:56;;;;;;;9.00;4.37;;;;;;;;;;5056771;28;20437;-50
2022/08/05 10:21:22;;;;;;;4.20;3.80;;;;;;;;;;5053854;28;20994;-50
2022/08/05 10:23:49;;;;;;;4.57;4.17;;;;;;;;;;5053677;28;20413;-50
2022/08/05 10:26:15;;;;;;;4.47;4.07;;;;;;;;;;5054720;28;20457;-49
2022/08/05 10:28:42;;;;;;;4.80;4.10;;;;;;;;;;5054736;28;20404;-50
2022/08/05 10:31:11;;;;;;;6.73;4.83;;;;;;;;;;5054038;28;20403;-50
2022/08/05 10:33:37;;;;;;;7.20;4.00;;;;;;;;;;5054928;28;20420;-50
2022/08/05 10:36:03;;;;;;;7.37;4.40;;;;;;;;;;5054575;28;20421;-49
2022/08/05 10:38:30;;;;;;;7.53;4.50;;;;;;;;;;5054631;28;20401;-50
2022/08/05 10:41:02;;;;;;;4.60;3.90;;;;;;;;;;5053822;28;20434;-49
2022/08/05 10:43:28;;;;;;;5.40;3.90;;;;;;;;;;5054483;28;20762;-50
2022/08/05 10:46:06;;;;;;;5.27;4.17;;;;;;;;;;5054348;28;20464;-50
2022/08/05 10:48:36;;;;;;;6.43;3.73;;;;;;;;;;5054148;28;20426;-50
2022/08/05 10:51:04;;;;;;;5.77;4.33;;;;;;;;;;5053729;28;20403;-50
2022/08/05 10:53:34;;;;;;;5.00;4.27;;;;;;;;;;5053956;28;20394;-50
2022/08/05 10:56:06;;;;;;;5.20;4.50;;;;;;;;;;5053572;28;20476;-50
2022/08/05 10:58:32;;;;;;;4.40;3.90;;;;;;;;;;5054405;28;20457;-51
2022/08/05 11:00:58;;;;;;;3.90;3.60;;;;;;;;;;5053550;28;20472;-49
2022/08/05 11:03:23;;;;;;;4.50;3.87;;;;;;;;;;5054234;28;20893;-50
2022/08/05 11:06:03;;;;;;;6.20;3.90;;;;;;;;;;5054020;28;20463;-50
2022/08/05 11:08:29;;;;;;;4.40;3.80;;;;;;;;;;5052708;28;20420;-50
2022/08/05 11:10:55;;;;;;;4.10;3.70;;;;;;;;;;5053230;28;20449;-50
2022/08/05 11:13:40;;;;;;;3.77;3.47;;;;;;;;;;5053110;28;20405;-51
2022/08/05 11:16:21;;;;;;;5.27;3.50;;;;;;;;;;5053890;28;20479;-50
2022/08/05 11:18:47;;;;;;;3.27;2.67;;;;;;;;;;5053472;28;20856;-50
2022/08/05 11:21:31;;;;;;;3.87;3.00;;;;;;;;;;5053424;28;20408;-50
2022/08/05 11:23:57;;;;;;;3.43;3.13;;;;;;;;;;5053838;28;20411;-50
2022/08/05 11:26:24;;;;;;;4.13;3.40;;;;;;;;;;5053673;28;20469;-50
2022/08/05 11:28:51;;;;;;;4.10;2.80;;;;;;;;;;5053573;28;20431;-50
2022/08/05 11:31:17;;;;;;;6.13;4.53;;;;;;;;;;5052971;28;20485;-50
2022/08/05 11:33:46;;;;;;;2.93;2.60;;;;;;;;;;5054129;28;20401;-50
2022/08/05 11:36:13;;;;;;;2.80;2.00;;;;;;;;;;5068997;28;20515;-50
2022/08/05 11:38:39;;;;;;;3.63;1.60;;;;;;;;;;5062527;28;20441;-50
2022/08/05 11:41:05;;;;;;;3.30;2.40;;;;;;;;;;5072716;28;20942;-51
2022/08/05 11:43:32;;;;;;;2.73;2.00;;;;;;;;;;5073296;28;20407;-51
2022/08/05 11:45:59;;;;;;;4.30;2.20;;;;;;;;;;5073321;28;20527;-50
2022/08/05 11:48:25;;;;;;;2.33;1.77;;;;;;;;;;5072345;28;20491;-51
2022/08/05 11:50:52;;;;;;;2.13;1.90;;;;;;;;;;5053157;28;20512;-50
2022/08/05 11:53:18;;;;;;;5.10;2.23;;;;;;;;;;5053189;28;20833;-51
2022/08/05 11:56:01;;;;;;;3.30;1.90;;;;;;;;;;5053052;28;20421;-50
2022/08/05 11:58:34;;;;;;;2.60;1.83;;;;;;;;;;5051591;28;20779;-50
2022/08/05 12:01:01;;;;;;;6.83;2.10;;;;;;;;;;5052352;28;20409;-51
2022/08/05 12:03:27;;;;;;;4.97;2.27;;;;;;;;;;5053098;28;20413;-50
2022/08/05 12:05:53;;;;;;;4.53;2.00;;;;;;;;;;5052586;28;20465;-50
2022/08/05 12:08:19;;;;;;;3.10;2.07;;;;;;;;;;5052969;28;20484;-51
2022/08/05 12:10:47;;;;;;;2.70;1.97;;;;;;;;;;5052091;28;20393;-51
2022/08/05 12:13:15;;;;;;;6.60;2.10;;;;;;;;;;5052722;28;20422;-50
2022/08/05 12:15:43;;;;;;;2.63;2.20;;;;;;;;;;5052760;28;20421;-51
2022/08/05 12:18:09;;;;;;;3.10;2.10;;;;;;;;;;5052589;28;20402;-50
2022/08/05 12:20:37;;;;;;;2.50;2.30;;;;;;;;;;5052024;28;20918;-50
2022/08/05 12:23:12;;;;;;;2.07;1.87;;;;;;;;;;5052666;28;20401;-50
2022/08/05 12:25:54;;;;;;;1.83;1.60;;;;;;;;;;5052300;28;20455;-52
2022/08/05 12:28:36;;;;;;;2.80;1.60;;;;;;;;;;5052625;28;20432;-50
2022/08/05 12:31:03;;;;;;;4.20;2.23;;;;;;;;;;5051688;28;20429;-50
2022/08/05 12:33:29;;;;;;;2.40;2.20;;;;;;;;;;5052372;28;20405;-51
2022/08/05 12:35:55;;;;;;;2.73;2.30;;;;;;;;;;5052349;28;20444;-51
2022/08/05 12:38:24;;;;;;;3.77;2.17;;;;;;;;;;5052301;28;20433;-51
2022/08/05 12:40:51;;;;;;;4.87;2.33;;;;;;;;;;5051635;28;20451;-51
2022/08/05 12:43:17;;;;;;;4.53;2.10;;;;;;;;;;5052565;28;20482;-51
2022/08/05 12:45:55;;;;;;;2.73;2.53;;;;;;;;;;5061230;28;20822;-50
2022/08/05 12:48:24;;;;;;;8.10;2.73;;;;;;;;;;5072163;28;20408;-50
2022/08/05 12:51:10;;;;;;;2.70;2.20;;;;;;;;;;5071258;28;20447;-51
2022/08/05 12:53:43;;;;;;;2.60;2.07;;;;;;;;;;5072118;28;20396;-51
2022/08/05 12:56:16;;;;;;;4.10;2.40;;;;;;;;;;5072018;28;20425;-51
2022/08/05 12:58:42;;;;;;;2.87;2.67;;;;;;;;;;5070508;28;20454;-50
2022/08/05 13:01:08;;;;;;;2.20;2.10;;;;;;;;;;5071340;28;20396;-50
2022/08/05 13:03:35;;;;;;;6.57;2.17;;;;;;;;;;5072084;28;20403;-51
2022/08/05 13:06:01;;;;;;;4.00;2.43;;;;;;;;;;5071884;28;20456;-51
2022/08/05 13:08:30;;;;;;;3.00;2.80;;;;;;;;;;5071921;28;20424;-52
2022/08/05 13:11:02;;;;;;;3.33;3.07;;;;;;;;;;5071238;28;20404;-50
2022/08/05 13:13:29;;;;;;;2.40;2.20;;;;;;;;;;5070603;28;20543;-50
2022/08/05 13:15:55;;;;;;;3.40;2.60;;;;;;;;;;5071789;28;20856;-50
2022/08/05 13:18:21;;;;;;;2.50;2.30;;;;;;;;;;5071290;28;20435;-51
2022/08/05 13:20:47;;;;;;;2.60;2.40;;;;;;;;;;5071012;28;20916;-50
2022/08/05 13:23:13;;;;;;;6.90;2.30;;;;;;;;;;5071816;28;20489;-50
2022/08/05 13:25:39;;;;;;;2.90;2.50;;;;;;;;;;5071598;28;20998;-50
2022/08/05 13:28:06;;;;;;;2.57;2.47;;;;;;;;;;5071746;28;20396;-50
2022/08/05 13:30:32;;;;;;;2.60;2.40;;;;;;;;;;5071032;28;20403;-50
2022/08/05 13:32:58;;;;;;;2.80;2.60;;;;;;;;;;5071796;28;20404;-50
2022/08/05 13:35:24;;;;;;;3.53;3.23;;;;;;;;;;5071655;28;20400;-50
2022/08/05 13:37:50;;;;;;;3.53;3.03;;;;;;;;;;5071709;28;20459;-50
2022/08/05 13:40:17;;;;;;;3.50;3.30;;;;;;;;;;5070908;28;20403;-50
2022/08/05 13:42:44;;;;;;;3.10;2.90;;;;;;;;;;5069837;28;20396;-51
2022/08/05 13:45:10;;;;;;;3.60;3.30;;;;;;;;;;5069871;28;20456;-51
2022/08/05 13:47:38;;;;;;;3.50;2.80;;;;;;;;;;5071518;28;20423;-51
2022/08/05 13:50:04;;;;;;;2.73;2.47;;;;;;;;;;5070847;28;20438;-51
2022/08/05 13:52:31;;;;;;;3.50;2.43;;;;;;;;;;5070490;28;20489;-51
2022/08/05 13:54:57;;;;;;;2.57;2.47;;;;;;;;;;5071446;28;20397;-51
2022/08/05 13:57:23;;;;;;;2.90;2.43;;;;;;;;;;5071040;28;20977;-51
2022/08/05 13:59:50;;;;;;;2.20;2.10;;;;;;;;;;5051725;28;20428;-50
2022/08/05 14:02:16;;;;;;;3.00;2.60;;;;;;;;;;5050082;28;20760;-50
2022/08/05 14:07:32;;;;;;;3.83;2.63;;;;;;;;;;5051753;28;20487;-51
2022/08/05 14:09:59;;;;;;;6.67;6.10;;;;;;;;;;5056322;28;20892;-50
2022/08/05 14:12:25;;;;;;;5.83;3.90;;;;;;;;;;5054859;28;20409;-50
2022/08/05 14:14:51;;;;;;;6.30;5.70;;;;;;;;;;5056571;28;20417;-50
2022/08/05 14:17:17;;;;;;;3.70;3.30;;;;;;;;;;5050552;28;20423;-50
2022/08/05 14:19:43;;;;;;;3.93;3.33;;;;;;;;;;5050460;28;20389;-49
2022/08/05 14:22:09;;;;;;;3.63;3.43;;;;;;;;;;5050642;28;20395;-49
2022/08/05 14:24:37;;;;;;;3.80;3.50;;;;;;;;;;5051254;28;20892;-49
2022/08/05 14:27:03;;;;;;;4.13;3.20;;;;;;;;;;5065424;28;20459;-50
2022/08/05 14:29:29;;;;;;;3.53;3.23;;;;;;;;;;5061568;28;20445;-49
2022/08/05 14:31:55;;;;;;;2.70;2.50;;;;;;;;;;5053488;28;20430;-49
2022/08/05 14:34:21;;;;;;;3.70;2.90;;;;;;;;;;5066495;28;20923;-50
2022/08/05 14:36:47;;;;;;;2.53;2.43;;;;;;;;;;5054708;28;20428;-49
2022/08/05 14:39:13;;;;;;;2.90;2.70;;;;;;;;;;5054677;28;20411;-50
2022/08/05 14:41:39;;;;;;;3.27;2.50;;;;;;;;;;5053788;28;20409;-49
2022/08/05 14:44:05;;;;;;;2.80;2.33;;;;;;;;;;5054376;28;20421;-49
2022/08/05 14:46:31;;;;;;;2.40;2.20;;;;;;;;;;5054211;28;20466;-50